sensor_id;sensor_type;location;lat;lon;timestamp;pressure;altitude;pressure_sealevel;temperature;humidity
60307;BME280;46155;52.364;6.580;2023-10-19T03:00:26;99006.09;;;9.39;100.00
60307;BME280;46155;52.364;6.580;2023-10-19T03:02:59;99019.13;;;9.38;100.00
60307;BME280;46155;52.364;6.580;2023-10-19T03:05:25;99012.19;;;9.40;100.00
60307;BME280;46155;52.364;6.580;2023-10-19T03:07:51;98996.63;;;9.43;100.00
60307;BME280;46155;52.364;6.580;2023-10-19T03:10:17;99016.00;;;9.48;100.00
60307;BME280;46155;52.364;6.580;2023-10-19T03:12:50;98999.66;;;9.55;100.00
60307;BME280;46155;52.364;6.580;2023-10-19T03:15:16;98997.09;;;9.57;100.00
60307;BME280;46155;52.364;6.580;2023-10-19T03:17:44;98999.13;;;9.64;100.00
60307;BME280;46155;52.364;6.580;2023-10-19T03:20:10;98989.41;;;9.61;100.00
60307;BME280;46155;52.364;6.580;2023-10-19T03:22:36;99007.91;;;9.66;100.00
60307;BME280;46155;52.364;6.580;2023-10-19T03:25:04;99010.63;;;9.69;100.00
60307;BME280;46155;52.364;6.580;2023-10-19T03:27:48;99009.88;;;9.72;100.00
60307;BME280;46155;52.364;6.580;2023-10-19T03:30:14;99004.63;;;9.72;100.00
60307;BME280;46155;52.364;6.580;2023-10-19T03:32:41;98995.97;;;9.74;100.00
60307;BME280;46155;52.364;6.580;2023-10-19T03:35:06;99001.28;;;9.76;100.00
60307;BME280;46155;52.364;6.580;2023-10-19T03:37:31;98997.09;;;9.81;100.00
60307;BME280;46155;52.364;6.580;2023-10-19T03:40:00;98998.84;;;9.82;100.00
60307;BME280;46155;52.364;6.580;2023-10-19T03:42:30;98999.81;;;9.84;100.00
60307;BME280;46155;52.364;6.580;2023-10-19T03:44:59;98994.69;;;9.87;100.00
60307;BME280;46155;52.364;6.580;2023-10-19T03:47:27;98989.44;;;9.87;100.00
60307;BME280;46155;52.364;6.580;2023-10-19T03:50:04;98987.75;;;9.89;100.00
60307;BME280;46155;52.364;6.580;2023-10-19T03:52:36;98988.91;;;9.97;100.00
60307;BME280;46155;52.364;6.580;2023-10-19T03:55:04;98991.63;;;10.00;100.00
60307;BME280;46155;52.364;6.580;2023-10-19T03:57:37;98987.44;;;10.06;100.00
60307;BME280;46155;52.364;6.580;2023-10-19T04:00:07;98978.75;;;10.07;100.00
60307;BME280;46155;52.364;6.580;2023-10-19T04:02:40;98980.56;;;10.09;100.00
60307;BME280;46155;52.364;6.580;2023-10-19T04:05:07;98981.56;;;10.13;100.00
60307;BME280;46155;52.364;6.580;2023-10-19T04:07:34;98983.44;;;10.17;100.00
60307;BME280;46155;52.364;6.580;2023-10-19T04:10:00;98985.41;;;10.24;100.00
60307;BME280;46155;52.364;6.580;2023-10-19T04:12:32;98971.38;;;10.22;100.00
60307;BME280;46155;52.364;6.580;2023-10-19T04:15:00;98973.28;;;10.26;100.00
60307;BME280;46155;52.364;6.580;2023-10-19T04:17:35;98976.25;;;10.37;100.00
60307;BME280;46155;52.364;6.580;2023-10-19T04:20:02;98971.09;;;10.40;100.00
60307;BME280;46155;52.364;6.580;2023-10-19T04:22:47;98960.72;;;10.43;100.00
60307;BME280;46155;52.364;6.580;2023-10-19T04:25:13;98966.06;;;10.46;100.00
60307;BME280;46155;52.364;6.580;2023-10-19T04:27:42;98967.03;;;10.50;100.00
60307;BME280;46155;52.364;6.580;2023-10-19T04:30:09;98965.38;;;10.52;100.00
60307;BME280;46155;52.364;6.580;2023-10-19T04:32:41;98956.63;;;10.53;100.00
60307;BME280;46155;52.364;6.580;2023-10-19T04:35:07;98970.00;;;10.61;100.00
60307;BME280;46155;52.364;6.580;2023-10-19T04:37:34;98952.56;;;10.63;100.00
60307;BME280;46155;52.364;6.580;2023-10-19T04:39:59;98960.59;;;10.67;100.00
60307;BME280;46155;52.364;6.580;2023-10-19T04:42:26;98960.69;;;10.71;100.00
60307;BME280;46155;52.364;6.580;2023-10-19T04:44:54;98958.97;;;10.73;100.00
60307;BME280;46155;52.364;6.580;2023-10-19T04:47:19;98952.16;;;10.78;100.00
60307;BME280;46155;52.364;6.580;2023-10-19T04:49:45;98957.50;;;10.81;100.00
60307;BME280;46155;52.364;6.580;2023-10-19T04:52:10;98946.81;;;10.75;100.00
60307;BME280;46155;52.364;6.580;2023-10-19T04:54:35;98946.19;;;10.83;100.00
60307;BME280;46155;52.364;6.580;2023-10-19T04:57:02;98939.25;;;10.85;100.00
60307;BME280;46155;52.364;6.580;2023-10-19T04:59:28;98945.50;;;10.89;100.00
60307;BME280;46155;52.364;6.580;2023-10-19T05:01:53;98943.69;;;10.88;100.00
60307;BME280;46155;52.364;6.580;2023-10-19T05:04:19;98949.03;;;10.91;100.00
60307;BME280;46155;52.364;6.580;2023-10-19T05:06:45;98950.06;;;10.96;100.00
60307;BME280;46155;52.364;6.580;2023-10-19T05:09:10;98945.75;;;10.98;100.00
60307;BME280;46155;52.364;6.580;2023-10-19T05:11:37;98952.88;;;11.02;100.00
60307;BME280;46155;52.364;6.580;2023-10-19T05:14:03;98947.81;;;11.09;100.00
60307;BME280;46155;52.364;6.580;2023-10-19T05:16:30;98943.72;;;11.18;100.00
60307;BME280;46155;52.364;6.580;2023-10-19T05:18:56;98949.19;;;11.26;100.00
60307;BME280;46155;52.364;6.580;2023-10-19T05:21:21;98950.09;;;11.28;100.00
60307;BME280;46155;52.364;6.580;2023-10-19T05:23:46;98951.84;;;11.28;100.00
60307;BME280;46155;52.364;6.580;2023-10-19T05:26:12;98951.91;;;11.31;100.00
60307;BME280;46155;52.364;6.580;2023-10-19T05:28:39;98946.72;;;11.32;100.00
60307;BME280;46155;52.364;6.580;2023-10-19T05:31:05;98953.75;;;11.33;100.00
60307;BME280;46155;52.364;6.580;2023-10-19T05:33:30;98948.50;;;11.33;100.00
60307;BME280;46155;52.364;6.580;2023-10-19T05:35:55;98941.38;;;11.29;100.00
60307;BME280;46155;52.364;6.580;2023-10-19T05:38:21;98954.69;;;11.35;100.00
60307;BME280;46155;52.364;6.580;2023-10-19T05:40:47;98955.63;;;11.37;100.00
60307;BME280;46155;52.364;6.580;2023-10-19T05:43:15;98960.28;;;11.48;100.00
60307;BME280;46155;52.364;6.580;2023-10-19T05:45:40;98959.50;;;11.52;100.00
60307;BME280;46155;52.364;6.580;2023-10-19T05:48:06;98963.97;;;11.54;100.00
60307;BME280;46155;52.364;6.580;2023-10-19T05:50:35;98958.72;;;11.54;100.00
60307;BME280;46155;52.364;6.580;2023-10-19T05:53:01;98969.22;;;11.54;100.00
60307;BME280;46155;52.364;6.580;2023-10-19T05:55:28;98973.50;;;11.51;100.00
60307;BME280;46155;52.364;6.580;2023-10-19T05:57:54;98965.53;;;11.48;100.00
60307;BME280;46155;52.364;6.580;2023-10-19T06:00:19;98979.84;;;11.59;100.00
60307;BME280;46155;52.364;6.580;2023-10-19T06:02:47;98979.84;;;11.59;100.00
60307;BME280;46155;52.364;6.580;2023-10-19T06:05:15;98987.81;;;11.62;100.00
60307;BME280;46155;52.364;6.580;2023-10-19T06:07:50;98988.72;;;11.63;100.00
60307;BME280;46155;52.364;6.580;2023-10-19T06:10:17;98975.66;;;11.66;100.00
60307;BME280;46155;52.364;6.580;2023-10-19T06:12:46;98978.28;;;11.66;100.00
60307;BME280;46155;52.364;6.580;2023-10-19T06:15:13;98991.41;;;11.64;100.00
60307;BME280;46155;52.364;6.580;2023-10-19T06:17:40;98985.19;;;11.62;100.00
60307;BME280;46155;52.364;6.580;2023-10-19T06:20:10;98995.06;;;11.69;100.00
60307;BME280;46155;52.364;6.580;2023-10-19T06:22:48;98994.94;;;11.66;100.00
60307;BME280;46155;52.364;6.580;2023-10-19T06:25:20;99001.19;;;11.70;100.00
60307;BME280;46155;52.364;6.580;2023-10-19T06:27:50;98995.06;;;11.69;100.00
60307;BME280;46155;52.364;6.580;2023-10-19T06:30:16;99004.69;;;11.70;100.00
60307;BME280;46155;52.364;6.580;2023-10-19T06:32:49;98999.47;;;11.72;100.00
60307;BME280;46155;52.364;6.580;2023-10-19T06:35:19;98998.50;;;11.68;100.00
60307;BME280;46155;52.364;6.580;2023-10-19T06:37:44;99010.91;;;11.73;100.00
60307;BME280;46155;52.364;6.580;2023-10-19T06:40:11;99014.53;;;11.78;100.00
60307;BME280;46155;52.364;6.580;2023-10-19T06:42:37;99012.75;;;11.77;100.00
60307;BME280;46155;52.364;6.580;2023-10-19T06:45:03;99016.22;;;11.76;100.00
60307;BME280;46155;52.364;6.580;2023-10-19T06:47:29;99009.19;;;11.75;100.00
60307;BME280;46155;52.364;6.580;2023-10-19T06:49:55;99018.94;;;11.79;100.00
60307;BME280;46155;52.364;6.580;2023-10-19T06:52:21;99025.03;;;11.78;100.00
60307;BME280;46155;52.364;6.580;2023-10-19T06:54:46;99018.88;;;11.76;100.00
60307;BME280;46155;52.364;6.580;2023-10-19T06:57:11;99022.38;;;11.76;100.00
60307;BME280;46155;52.364;6.580;2023-10-19T06:59:37;99008.31;;;11.74;100.00
60307;BME280;46155;52.364;6.580;2023-10-19T07:02:02;99012.75;;;11.77;100.00
60307;BME280;46155;52.364;6.580;2023-10-19T07:04:28;99024.25;;;11.80;100.00
60307;BME280;46155;52.364;6.580;2023-10-19T07:06:54;99031.28;;;11.81;100.00
60307;BME280;46155;52.364;6.580;2023-10-19T07:09:19;99026.91;;;11.82;100.00
60307;BME280;46155;52.364;6.580;2023-10-19T07:11:46;99033.13;;;11.84;100.00
60307;BME280;46155;52.364;6.580;2023-10-19T07:14:11;99023.44;;;11.83;100.00
60307;BME280;46155;52.364;6.580;2023-10-19T07:16:39;99037.63;;;11.88;100.00
60307;BME280;46155;52.364;6.580;2023-10-19T07:19:04;99035.84;;;11.88;100.00
60307;BME280;46155;52.364;6.580;2023-10-19T07:21:30;99042.94;;;11.91;100.00
60307;BME280;46155;52.364;6.580;2023-10-19T07:24:00;99044.69;;;11.92;100.00
60307;BME280;46155;52.364;6.580;2023-10-19T07:26:30;99043.81;;;11.92;100.00
60307;BME280;46155;52.364;6.580;2023-10-19T07:28:58;99047.34;;;11.92;100.00
60307;BME280;46155;52.364;6.580;2023-10-19T07:31:24;99042.97;;;11.93;100.00
60307;BME280;46155;52.364;6.580;2023-10-19T07:33:50;99036.09;;;11.96;100.00
60307;BME280;46155;52.364;6.580;2023-10-19T07:36:16;99040.53;;;11.99;100.00
60307;BME280;46155;52.364;6.580;2023-10-19T07:38:42;99034.41;;;11.98;100.00
60307;BME280;46155;52.364;6.580;2023-10-19T07:41:09;99036.28;;;12.02;100.00
60307;BME280;46155;52.364;6.580;2023-10-19T07:43:35;99028.19;;;11.96;100.00
60307;BME280;46155;52.364;6.580;2023-10-19T07:46:00;99041.53;;;12.02;100.00
60307;BME280;46155;52.364;6.580;2023-10-19T07:48:26;99047.72;;;12.04;100.00
60307;BME280;46155;52.364;6.580;2023-10-19T07:50:51;99055.66;;;12.08;100.00
60307;BME280;46155;52.364;6.580;2023-10-19T07:53:18;99055.81;;;12.12;100.00
60307;BME280;46155;52.364;6.580;2023-10-19T07:55:43;99050.56;;;12.12;100.00
60307;BME280;46155;52.364;6.580;2023-10-19T07:58:09;99049.72;;;12.15;100.00
60307;BME280;46155;52.364;6.580;2023-10-19T08:00:35;99046.31;;;12.19;100.00
60307;BME280;46155;52.364;6.580;2023-10-19T08:03:05;99046.31;;;12.19;100.00
60307;BME280;46155;52.364;6.580;2023-10-19T08:05:31;99046.44;;;12.22;100.00
60307;BME280;46155;52.364;6.580;2023-10-19T08:07:57;99042.09;;;12.24;100.00
60307;BME280;46155;52.364;6.580;2023-10-19T08:10:24;99051.72;;;12.23;100.00
60307;BME280;46155;52.364;6.580;2023-10-19T08:12:50;99051.00;;;12.29;100.00
60307;BME280;46155;52.364;6.580;2023-10-19T08:15:17;99046.53;;;12.27;100.00
60307;BME280;46155;52.364;6.580;2023-10-19T08:17:49;99052.75;;;12.30;100.00
60307;BME280;46155;52.364;6.580;2023-10-19T08:20:15;99050.22;;;12.33;100.00
60307;BME280;46155;52.364;6.580;2023-10-19T08:22:44;99063.53;;;12.39;100.00
60307;BME280;46155;52.364;6.580;2023-10-19T08:25:12;99055.72;;;12.43;100.00
60307;BME280;46155;52.364;6.580;2023-10-19T08:27:40;99054.09;;;12.48;100.00
60307;BME280;46155;52.364;6.580;2023-10-19T08:30:07;99058.59;;;12.52;100.00
60307;BME280;46155;52.364;6.580;2023-10-19T08:32:34;99059.53;;;12.55;100.00
60307;BME280;46155;52.364;6.580;2023-10-19T08:35:01;99062.25;;;12.58;100.00
60307;BME280;46155;52.364;6.580;2023-10-19T08:37:27;99066.69;;;12.61;100.00
60307;BME280;46155;52.364;6.580;2023-10-19T08:39:53;99058.78;;;12.61;100.00
60307;BME280;46155;52.364;6.580;2023-10-19T08:42:18;99058.88;;;12.64;100.00
60307;BME280;46155;52.364;6.580;2023-10-19T08:44:43;99055.47;;;12.68;100.00
60307;BME280;46155;52.364;6.580;2023-10-19T08:47:09;99061.66;;;12.70;100.00
60307;BME280;46155;52.364;6.580;2023-10-19T08:49:34;99053.84;;;12.73;100.00
60307;BME280;46155;52.364;6.580;2023-10-19T08:52:00;99049.44;;;12.74;100.00
60307;BME280;46155;52.364;6.580;2023-10-19T08:54:29;99048.50;;;12.70;100.00
60307;BME280;46155;52.364;6.580;2023-10-19T08:56:55;99054.84;;;12.79;100.00
60307;BME280;46155;52.364;6.580;2023-10-19T08:59:21;99051.31;;;12.78;100.00
60307;BME280;46155;52.364;6.580;2023-10-19T09:01:46;99054.88;;;12.80;100.00
60307;BME280;46155;52.364;6.580;2023-10-19T09:04:12;99061.16;;;12.87;100.00
60307;BME280;46155;52.364;6.580;2023-10-19T09:06:41;99063.00;;;12.91;100.00
60307;BME280;46155;52.364;6.580;2023-10-19T09:09:11;99060.44;;;12.94;100.00
60307;BME280;46155;52.364;6.580;2023-10-19T09:11:45;99052.53;;;12.94;100.00
60307;BME280;46155;52.364;6.580;2023-10-19T09:14:12;99065.81;;;12.97;100.00
60307;BME280;46155;52.364;6.580;2023-10-19T09:16:53;99063.25;;;13.00;100.00
60307;BME280;46155;52.364;6.580;2023-10-19T09:19:21;99052.00;;;13.07;100.00
60307;BME280;46155;52.364;6.580;2023-10-19T09:21:46;99041.53;;;13.12;100.00
60307;BME280;46155;52.364;6.580;2023-10-19T09:24:11;99045.19;;;13.17;100.00
60307;BME280;46155;52.364;6.580;2023-10-19T09:26:37;99047.06;;;13.23;100.00
60307;BME280;46155;52.364;6.580;2023-10-19T09:29:03;99043.69;;;13.30;100.00
60307;BME280;46155;52.364;6.580;2023-10-19T09:31:28;99042.13;;;13.37;100.00
60307;BME280;46155;52.364;6.580;2023-10-19T09:33:56;99041.38;;;13.42;100.00
60307;BME280;46155;52.364;6.580;2023-10-19T09:36:24;99038.84;;;13.49;100.00
60307;BME280;46155;52.364;6.580;2023-10-19T09:38:51;99040.72;;;13.54;100.00
60307;BME280;46155;52.364;6.580;2023-10-19T09:41:21;99040.78;;;13.57;100.00
60307;BME280;46155;52.364;6.580;2023-10-19T09:43:48;99025.78;;;13.55;100.00
60307;BME280;46155;52.364;6.580;2023-10-19T09:46:32;99032.03;;;13.60;100.00
60307;BME280;46155;52.364;6.580;2023-10-19T09:48:59;99039.13;;;13.63;100.00
60307;BME280;46155;52.364;6.580;2023-10-19T09:51:24;99027.81;;;13.68;100.00
60307;BME280;46155;52.364;6.580;2023-10-19T09:54:00;99031.31;;;13.67;100.00
60307;BME280;46155;52.364;6.580;2023-10-19T09:56:35;99026.09;;;13.70;100.00
60307;BME280;46155;52.364;6.580;2023-10-19T09:59:22;99027.97;;;13.77;100.00
60307;BME280;46155;52.364;6.580;2023-10-19T10:02:05;99025.38;;;13.79;100.00
60307;BME280;46155;52.364;6.580;2023-10-19T10:04:31;99012.31;;;13.85;100.00
60307;BME280;46155;52.364;6.580;2023-10-19T10:06:57;99015.94;;;13.92;100.00
60307;BME280;46155;52.364;6.580;2023-10-19T10:09:25;99016.94;;;13.97;100.00
60307;BME280;46155;52.364;6.580;2023-10-19T10:11:52;99012.59;;;13.99;100.00
60307;BME280;46155;52.364;6.580;2023-10-19T10:14:25;99020.53;;;14.01;100.00
60307;BME280;46155;52.364;6.580;2023-10-19T10:17:04;99024.94;;;14.03;100.00
60307;BME280;46155;52.364;6.580;2023-10-19T10:19:30;99027.59;;;14.03;100.00
60307;BME280;46155;52.364;6.580;2023-10-19T10:22:11;99036.38;;;14.02;100.00
60307;BME280;46155;52.364;6.580;2023-10-19T10:24:44;99030.22;;;14.03;100.00
60307;BME280;46155;52.364;6.580;2023-10-19T10:27:10;99032.06;;;14.07;100.00
60307;BME280;46155;52.364;6.580;2023-10-19T10:29:53;99031.25;;;14.11;100.00
60307;BME280;46155;52.364;6.580;2023-10-19T10:32:49;99021.72;;;14.18;100.00
60307;BME280;46155;52.364;6.580;2023-10-19T10:38:03;99015.69;;;14.27;100.00
60307;BME280;46155;52.364;6.580;2023-10-19T10:40:47;99015.88;;;14.38;100.00
60307;BME280;46155;52.364;6.580;2023-10-19T10:43:13;99017.75;;;14.45;100.00
60307;BME280;46155;52.364;6.580;2023-10-19T10:45:38;99026.56;;;14.45;100.00
60307;BME280;46155;52.364;6.580;2023-10-19T10:48:10;99027.63;;;14.57;100.00
60307;BME280;46155;52.364;6.580;2023-10-19T10:50:37;99029.56;;;14.67;100.00
60307;BME280;46155;52.364;6.580;2023-10-19T10:53:04;99033.16;;;14.69;100.00
60307;BME280;46155;52.364;6.580;2023-10-19T10:55:30;99021.78;;;14.73;100.00
60307;BME280;46155;52.364;6.580;2023-10-19T10:57:55;99025.34;;;14.78;100.00
60307;BME280;46155;52.364;6.580;2023-10-19T11:00:22;99024.53;;;14.83;100.00
60307;BME280;46155;52.364;6.580;2023-10-19T11:03:05;99022.03;;;14.90;100.00
60307;BME280;46155;52.364;6.580;2023-10-19T11:05:37;99031.88;;;15.02;100.00
60307;BME280;46155;52.364;6.580;2023-10-19T11:08:10;99019.81;;;15.20;100.00
60307;BME280;46155;52.364;6.580;2023-10-19T11:10:40;99030.66;;;15.41;100.00
60307;BME280;46155;52.364;6.580;2023-10-19T11:13:11;99031.72;;;15.57;100.00
60307;BME280;46155;52.364;6.580;2023-10-19T11:15:38;99030.97;;;15.69;100.00
60307;BME280;46155;52.364;6.580;2023-10-19T11:18:06;99032.78;;;15.73;100.00
60307;BME280;46155;52.364;6.580;2023-10-19T11:20:35;99024.91;;;15.76;100.00
60307;BME280;46155;52.364;6.580;2023-10-19T11:23:01;99016.22;;;15.85;100.00
60307;BME280;46155;52.364;6.580;2023-10-19T11:25:28;99016.22;;;15.85;100.00
60307;BME280;46155;52.364;6.580;2023-10-19T11:27:55;99018.84;;;15.83;100.00
60307;BME280;46155;52.364;6.580;2023-10-19T11:30:31;99009.13;;;15.82;100.00
60307;BME280;46155;52.364;6.580;2023-10-19T11:32:57;99005.63;;;15.85;100.00
60307;BME280;46155;52.364;6.580;2023-10-19T11:35:30;99007.47;;;15.92;100.00
60307;BME280;46155;52.364;6.580;2023-10-19T11:38:00;99008.34;;;15.93;100.00
60307;BME280;46155;52.364;6.580;2023-10-19T11:40:26;98999.63;;;16.03;100.00
60307;BME280;46155;52.364;6.580;2023-10-19T11:42:55;98985.63;;;16.16;100.00
60307;BME280;46155;52.364;6.580;2023-10-19T11:45:25;98976.63;;;15.97;100.00
60307;BME280;46155;52.364;6.580;2023-10-19T11:47:52;98971.31;;;15.94;100.00
60307;BME280;46155;52.364;6.580;2023-10-19T11:50:17;98970.34;;;15.86;100.00
60307;BME280;46155;52.364;6.580;2023-10-19T11:52:45;98963.22;;;15.79;100.00
60307;BME280;46155;52.364;6.580;2023-10-19T11:55:12;98978.06;;;15.69;100.00
60307;BME280;46155;52.364;6.580;2023-10-19T11:57:39;98988.72;;;15.75;100.00
60307;BME280;46155;52.364;6.580;2023-10-19T12:00:06;98987.94;;;15.82;100.00
60307;BME280;46155;52.364;6.580;2023-10-19T12:02:35;98982.81;;;15.96;100.00
60307;BME280;46155;52.364;6.580;2023-10-19T12:05:02;98982.88;;;16.07;100.00
60307;BME280;46155;52.364;6.580;2023-10-19T12:07:27;98990.84;;;16.07;100.00
60307;BME280;46155;52.364;6.580;2023-10-19T12:09:53;98988.16;;;16.03;100.00
60307;BME280;46155;52.364;6.580;2023-10-19T12:12:18;98977.50;;;15.95;100.00
60307;BME280;46155;52.364;6.580;2023-10-19T12:14:43;98968.66;;;15.93;100.00
60307;BME280;46155;52.364;6.580;2023-10-19T12:17:09;98963.34;;;15.91;100.00
60307;BME280;46155;52.364;6.580;2023-10-19T12:19:34;98954.53;;;15.91;100.00
60307;BME280;46155;52.364;6.580;2023-10-19T12:22:00;98961.50;;;15.84;100.00
60307;BME280;46155;52.364;6.580;2023-10-19T12:24:26;98950.94;;;15.87;100.00
60307;BME280;46155;52.364;6.580;2023-10-19T12:26:54;98950.09;;;15.90;100.00
60307;BME280;46155;52.364;6.580;2023-10-19T12:29:19;98950.06;;;15.83;100.00
60307;BME280;46155;52.364;6.580;2023-10-19T12:31:47;98943.88;;;15.88;100.00
60307;BME280;46155;52.364;6.580;2023-10-19T12:34:12;98946.50;;;15.84;100.00
60307;BME280;46155;52.364;6.580;2023-10-19T12:36:37;98953.63;;;15.90;100.00
60307;BME280;46155;52.364;6.580;2023-10-19T12:39:03;98949.25;;;15.92;100.00
60307;BME280;46155;52.364;6.580;2023-10-19T12:41:32;98928.00;;;15.84;100.00
60307;BME280;46155;52.364;6.580;2023-10-19T12:43:57;98928.97;;;15.94;100.00
60307;BME280;46155;52.364;6.580;2023-10-19T12:46:26;98930.72;;;15.94;100.00
60307;BME280;46155;52.364;6.580;2023-10-19T12:48:52;98931.63;;;15.99;100.00
60307;BME280;46155;52.364;6.580;2023-10-19T12:51:20;98930.84;;;16.06;100.00
60307;BME280;46155;52.364;6.580;2023-10-19T12:53:53;98926.47;;;16.13;100.00
60307;BME280;46155;52.364;6.580;2023-10-19T12:56:19;98933.66;;;16.25;100.00
60307;BME280;46155;52.364;6.580;2023-10-19T12:58:45;98941.63;;;16.31;100.00
60307;BME280;46155;52.364;6.580;2023-10-19T13:01:10;98938.16;;;16.38;100.00
60307;BME280;46155;52.364;6.580;2023-10-19T13:03:43;98931.06;;;16.35;100.00
60307;BME280;46155;52.364;6.580;2023-10-19T13:06:13;98933.69;;;16.31;100.00
60307;BME280;46155;52.364;6.580;2023-10-19T13:08:38;98940.69;;;16.24;100.00
60307;BME280;46155;52.364;6.580;2023-10-19T13:11:05;98941.59;;;16.25;100.00
60307;BME280;46155;52.364;6.580;2023-10-19T13:13:31;98939.81;;;16.24;100.00
60307;BME280;46155;52.364;6.580;2023-10-19T13:15:59;98945.97;;;16.23;100.00
60307;BME280;46155;52.364;6.580;2023-10-19T13:18:25;98955.66;;;16.17;100.00
60307;BME280;46155;52.364;6.580;2023-10-19T13:20:53;98951.13;;;16.09;100.00
60307;BME280;46155;52.364;6.580;2023-10-19T13:23:20;98949.31;;;16.03;100.00
60307;BME280;46155;52.364;6.580;2023-10-19T13:25:49;98942.19;;;15.93;100.00
60307;BME280;46155;52.364;6.580;2023-10-19T13:28:16;98936.84;;;15.88;100.00
60307;BME280;46155;52.364;6.580;2023-10-19T13:30:49;98928.00;;;15.88;100.00
60307;BME280;46155;52.364;6.580;2023-10-19T13:33:16;98923.63;;;15.87;100.00
60307;BME280;46155;52.364;6.580;2023-10-19T13:35:43;98914.84;;;15.94;100.00
60307;BME280;46155;52.364;6.580;2023-10-19T13:38:09;98916.69;;;16.04;100.00
60307;BME280;46155;52.364;6.580;2023-10-19T13:40:38;98916.78;;;16.13;100.00
60307;BME280;46155;52.364;6.580;2023-10-19T13:43:05;98914.09;;;16.09;100.00
60307;BME280;46155;52.364;6.580;2023-10-19T13:45:32;98919.44;;;16.12;100.00
60307;BME280;46155;52.364;6.580;2023-10-19T13:48:04;98911.44;;;16.10;100.00
60307;BME280;46155;52.364;6.580;2023-10-19T13:50:31;98920.31;;;16.12;100.00
60307;BME280;46155;52.364;6.580;2023-10-19T13:52:57;98914.06;;;16.06;100.00
60307;BME280;46155;52.364;6.580;2023-10-19T13:55:24;98919.44;;;16.12;100.00
60307;BME280;46155;52.364;6.580;2023-10-19T13:57:50;98910.59;;;16.14;100.00
60307;BME280;46155;52.364;6.580;2023-10-19T14:00:17;98913.22;;;16.10;100.00
60307;BME280;46155;52.364;6.580;2023-10-19T14:03:10;98911.44;;;16.07;100.00
60307;BME280;46155;52.364;6.580;2023-10-19T14:08:04;98920.31;;;16.12;100.00
60307;BME280;46155;52.364;6.580;2023-10-19T14:10:30;98918.53;;;16.14;100.00
60307;BME280;46155;52.364;6.580;2023-10-19T14:12:56;98909.72;;;16.12;100.00
60307;BME280;46155;52.364;6.580;2023-10-19T14:15:21;98911.50;;;16.13;100.00
60307;BME280;46155;52.364;6.580;2023-10-19T14:17:48;98913.22;;;16.11;100.00
60307;BME280;46155;52.364;6.580;2023-10-19T14:20:14;98909.69;;;16.06;100.00
60307;BME280;46155;52.364;6.580;2023-10-19T14:22:45;98914.06;;;16.07;100.00
60307;BME280;46155;52.364;6.580;2023-10-19T14:25:12;98907.91;;;16.08;100.00
60307;BME280;46155;52.364;6.580;2023-10-19T14:27:45;98907.94;;;16.11;100.00
60307;BME280;46155;52.364;6.580;2023-10-19T14:30:14;98904.41;;;16.12;100.00
60307;BME280;46155;52.364;6.580;2023-10-19T14:32:41;98905.28;;;16.13;100.00
60307;BME280;46155;52.364;6.580;2023-10-19T14:35:08;98907.06;;;16.12;100.00
60307;BME280;46155;52.364;6.580;2023-10-19T14:37:39;98904.41;;;16.09;100.00
60307;BME280;46155;52.364;6.580;2023-10-19T14:40:13;98905.28;;;16.13;100.00
60307;BME280;46155;52.364;6.580;2023-10-19T14:42:40;98901.75;;;16.08;100.00
60307;BME280;46155;52.364;6.580;2023-10-19T14:47:37;98899.94;;;16.05;100.00
60307;BME280;46155;52.364;6.580;2023-10-19T14:50:15;98888.47;;;16.05;100.00
60307;BME280;46155;52.364;6.580;2023-10-19T14:52:41;98882.25;;;15.98;100.00
60307;BME280;46155;52.364;6.580;2023-10-19T14:55:08;98886.59;;;15.91;100.00
60307;BME280;46155;52.364;6.580;2023-10-19T14:57:35;98880.44;;;15.94;100.00
60307;BME280;46155;52.364;6.580;2023-10-19T15:00:04;98889.28;;;15.99;100.00
60307;BME280;46155;52.364;6.580;2023-10-19T15:02:46;98890.13;;;15.92;100.00
60307;BME280;46155;52.364;6.580;2023-10-19T15:05:11;98883.09;;;15.94;100.00
60307;BME280;46155;52.364;6.580;2023-10-19T15:07:42;98885.72;;;15.91;100.00
60307;BME280;46155;52.364;6.580;2023-10-19T15:10:10;98881.28;;;15.88;100.00
60307;BME280;46155;52.364;6.580;2023-10-19T15:12:38;98880.38;;;15.88;100.00
60307;BME280;46155;52.364;6.580;2023-10-19T15:15:04;98870.69;;;15.87;100.00
60307;BME280;46155;52.364;6.580;2023-10-19T15:17:29;98872.41;;;15.84;100.00
60307;BME280;46155;52.364;6.580;2023-10-19T15:19:54;98873.25;;;15.79;100.00
60307;BME280;46155;52.364;6.580;2023-10-19T15:22:19;98875.06;;;15.83;100.00
60307;BME280;46155;52.364;6.580;2023-10-19T15:24:45;98872.34;;;15.78;100.00
60307;BME280;46155;52.364;6.580;2023-10-19T15:27:10;98872.34;;;15.78;100.00
60307;BME280;46155;52.364;6.580;2023-10-19T15:29:35;98867.91;;;15.74;100.00
60307;BME280;46155;52.364;6.580;2023-10-19T15:32:01;98867.84;;;15.68;100.00
60307;BME280;46155;52.364;6.580;2023-10-19T15:34:26;98864.28;;;15.66;100.00
60307;BME280;46155;52.364;6.580;2023-10-19T15:36:51;98862.50;;;15.63;100.00
60307;BME280;46155;52.364;6.580;2023-10-19T15:39:17;98865.13;;;15.62;100.00
60307;BME280;46155;52.364;6.580;2023-10-19T15:41:43;98858.09;;;15.61;100.00
60307;BME280;46155;52.364;6.580;2023-10-19T15:44:08;98844.81;;;15.58;100.00
60307;BME280;46155;52.364;6.580;2023-10-19T15:46:34;98844.03;;;15.65;100.00
60307;BME280;46155;52.364;6.580;2023-10-19T15:49:04;98850.16;;;15.59;100.00
60307;BME280;46155;52.364;6.580;2023-10-19T15:51:30;98854.47;;;15.49;100.00
60307;BME280;46155;52.364;6.580;2023-10-19T15:53:56;98832.34;;;15.40;100.00
60307;BME280;46155;52.364;6.580;2023-10-19T15:56:21;98842.94;;;15.43;100.00
60307;BME280;46155;52.364;6.580;2023-10-19T15:58:47;98834.03;;;15.35;100.00
60307;BME280;46155;52.364;6.580;2023-10-19T16:01:13;98834.88;;;15.32;100.00